Air Resources Laboratory banner image
Air Resources Laboratory web site National Oceanic and Atmospheric Administration (NOAA)

pa metar


KABE 140651Z 07004KT 7SM -SN OVC017 M05/M08 A2956 RMK AO2 SLP014 P0001
 T10501078=
KAFJ 140656Z AUTO 25012KT 2 1/2SM -SN BR OVC019 00/M02 A2944 RMK AO2 SLP982
 P0000 T00001022 FZRANO TSNO=
KAGC 140653Z 24015G23KT 3SM -SN OVC048 M01/M04 A2938 RMK AO2 SLP966 P0000
 T10061044=
KAOO 140653Z AUTO 18005KT 1 1/4SM -SN BR OVC015 M03/M05 A2939 RMK AO2 SLP971
 P0003 T10331050=
KAVP 140654Z 03003KT 2SM -SN BR BKN020 OVC033 M07/M09 A2949 RMK AO2 SLP998
 P0002 T10721089=
KBFD 140653Z AUTO 06003KT 1 1/2SM -SN BR M09/M11 A2936 RMK AO2 SLP973 P0000
 T10941111=
KBTP 140656Z AUTO 22007KT 2 1/2SM -SN BR BKN010 OVC015 M04/M04 A2938 RMK AO2
 CIG 007V013 SLP970 P0003 T10391044 FZRANO=
KCXY 140656Z AUTO 10006KT 8SM -SN BKN007 BKN021 OVC050 M03/M06 A2951 RMK AO2
 SNB55 SLP999 P0000 T10331061=
KDUJ 140653Z AUTO 07005KT 3/4SM -SN BR VV011 M07/M09 A2934 RMK AO2 SLP963 P0004
 T10721089=
KDYL 140654Z AUTO VRB03KT 10SM OVC007 M05/M06 A2955 RMK AO2 SNE39 CIG 005V009
 SLP017 P0000 T10501061=
KERI 140651Z AUTO 06005KT 2SM -SN BR FEW023 OVC038 M06/M08 A2948 RMK AO2 SLP993
 P0000 T10611078=
KFIG 140654Z AUTO 02007KT 1SM -SN BR VV014 M08/M09 A2938 RMK AO2 SLP972 P0003
 T10781089=
KFKL 140651Z AUTO 03006KT 1SM -SN BR OVC009 M07/M09 A2938 RMK AO2 CIG 006V012
 SLP972 P0004 T10721089 FZRANO=
KGKJ 140653Z AUTO 03007KT 1 1/2SM -SN BR OVC021 M07/M08 A2941 RMK AO2 SLP978
 P0001 T10721083=
KIDI 140655Z AUTO 25010G20KT 3/4SM BR OVC003 M02/M02 A2940 RMK A01=
KIPT 140654Z AUTO 07008KT 6SM -SN BKN035 OVC048 M06/M08 A2949 RMK AO2 SLP995
 P0000 T10561083=
KJST 140654Z AUTO 24015G21KT 1SM -SN BR BKN005 OVC011 M02/M03 A2933 RMK AO2
 SLP959 P0001 T10221028=
KLBE 140655Z AUTO 21012G19KT 3SM -SN FEW001 SCT011 BKN018 00/M02 A2940 RMK AO2
 P0017=
KLNS 140653Z AUTO 08005KT 9SM BKN007 OVC050 M03/M04 A2952 RMK AO2 SLP001
 T10331044=
KMDT 140656Z 10005KT 9SM -SN OVC050 M04/M05 A2951 RMK AO2 SNB56 SLP998 P0000
 T10391050=
KMPO 140653Z AUTO 10008KT 2 1/2SM -SN BR BKN018 OVC028 M10/M10 A2943 RMK AO2
 SLP998 P0002 T11001100=
KMUI 140656Z AUTO 06004KT 10SM BKN010 BKN029 M05/M06 A2952 RMK AO2 SNE14 BKN010
 V OVC SLP006 P0000 T10551056=
KPHL 140654Z 13005KT 10SM BKN009 OVC035 M02/M04 A2958 RMK AO2 SNE01 SLP017
 P0000 T10171039=
KPIT 140651Z 25011G19KT 3SM -SN SCT012 OVC022 00/M03 A2938 RMK AO2 SLP970 P0000
 T00001033 $=
KPNE 140654Z AUTO 14005KT 9SM OVC007 M03/M04 A2960 RMK AO2 SNB07E20 CIG 006V009
 SLP023 P0000 T10281044=
KPTW 140654Z AUTO 09004KT 7SM OVC007 M05/M06 A2956 RMK AO2 SNE17 SLP011 P0000
 T10501061=
KRDG 140654Z 00000KT 10SM OVC010 M04/M05 A2953 RMK AO2 SLP009 T10441050=
KSEG 140653Z AUTO 00000KT 7SM BKN042 BKN050 OVC065 M06/M07 A2951 RMK AO2 SNE51
 SLP998 P0000 T10611072=
KTHV 140653Z AUTO 00000KT 10SM BKN060 OVC075 M03/M06 A2950 RMK AO2 SLP996
 T10281056=
KUNV 140655Z AUTO 01004KT 1 3/4SM -SN OVC007 M07/M09 A2942 RMK AO2 T10751086=